createdAt,value
2019-01-10T00:00:49.371Z,100770.52
2019-01-10T00:03:21.157Z,100779.16
2019-01-10T00:05:52.796Z,100790.45
2019-01-10T00:08:24.413Z,100793.05
2019-01-10T00:10:56.064Z,100795.64
2019-01-10T00:13:28.790Z,100796.07
2019-01-10T00:16:00.478Z,100798.67
2019-01-10T00:18:32.123Z,100793.52
2019-01-10T00:21:03.883Z,100793.11
2019-01-10T00:23:35.501Z,100792.68
2019-01-10T00:26:07.148Z,100792.28
2019-01-10T00:28:38.730Z,100800.06
2019-01-10T00:31:10.645Z,100806.13
2019-01-10T00:33:42.258Z,100805.22
2019-01-10T00:36:13.975Z,100805.66
2019-01-10T00:38:46.375Z,100801.77
2019-01-10T00:41:18.059Z,100806.95
2019-01-10T00:43:49.749Z,100809.55
2019-01-10T00:46:21.395Z,100811.71
2019-01-10T00:48:53.063Z,100808.19
2019-01-10T00:51:25.761Z,100809.02
2019-01-10T00:53:57.366Z,100812.04
2019-01-10T00:56:29.216Z,100816.33
2019-01-10T00:59:01.936Z,100813.73
2019-01-10T01:01:33.574Z,100818.50
2019-01-10T01:04:05.202Z,100817.20
2019-01-10T01:06:37.141Z,100813.30
2019-01-10T01:09:10.165Z,100824.52
2019-01-10T01:11:41.958Z,100824.55
2019-01-10T01:14:13.593Z,100823.29
2019-01-10T01:16:45.211Z,100822.89
2019-01-10T01:19:16.822Z,100825.09
2019-01-10T01:21:48.708Z,100826.42
2019-01-10T01:24:20.623Z,100826.87
2019-01-10T01:26:52.248Z,100835.96
2019-01-10T01:29:23.849Z,100832.50
2019-01-10T01:31:55.867Z,100841.98
2019-01-10T01:34:28.554Z,100840.22
2019-01-10T01:37:00.481Z,100848.02
2019-01-10T01:39:32.130Z,100851.84
2019-01-10T01:42:04.071Z,100860.06
2019-01-10T01:44:35.668Z,100862.66
2019-01-10T01:47:07.318Z,100870.45
2019-01-10T01:49:39.081Z,100868.28
2019-01-10T01:52:10.804Z,100881.66
2019-01-10T01:54:42.403Z,100879.03
2019-01-10T01:57:14.032Z,100882.50
2019-01-10T01:59:45.618Z,100880.34
2019-01-10T02:02:17.219Z,100886.36
2019-01-10T02:04:48.908Z,100887.27
2019-01-10T02:07:20.527Z,100888.55
2019-01-10T02:09:52.406Z,100885.53
2019-01-10T02:12:25.772Z,100892.48
2019-01-10T02:14:57.391Z,100896.38
2019-01-10T02:17:29.053Z,100895.54
2019-01-10T02:20:01.169Z,100893.80
2019-01-10T02:22:33.550Z,100897.70
2019-01-10T02:25:07.149Z,100902.05
2019-01-10T02:27:38.844Z,100902.48
2019-01-10T02:30:16.947Z,100900.35
2019-01-10T02:32:49.042Z,100899.05
2019-01-10T02:35:20.782Z,100899.94
2019-01-10T02:37:52.590Z,100901.67
2019-01-10T02:40:24.270Z,100906.42
2019-01-10T02:42:55.881Z,100908.19
2019-01-10T02:45:27.518Z,100907.31
2019-01-10T02:47:59.191Z,100902.55
2019-01-10T02:50:30.804Z,100905.59
2019-01-10T02:53:02.449Z,100902.13
2019-01-10T02:55:34.203Z,100898.66
2019-01-10T02:58:06.330Z,100907.75
2019-01-10T03:00:38.290Z,100897.37
2019-01-10T03:03:09.988Z,100904.28
2019-01-10T03:05:41.580Z,100902.55
2019-01-10T03:08:13.199Z,100904.73
2019-01-10T03:10:45.285Z,100901.27
2019-01-10T03:13:16.991Z,100898.67
2019-01-10T03:15:48.687Z,100897.77
2019-01-10T03:18:20.509Z,100893.05
2019-01-10T03:20:52.707Z,100887.86
2019-01-10T03:23:24.427Z,100890.88
2019-01-10T03:25:56.580Z,100883.53
2019-01-10T03:28:31.497Z,100884.83
2019-01-10T03:31:08.924Z,100890.02
2019-01-10T03:33:43.481Z,100888.72
2019-01-10T03:36:18.107Z,100885.72
2019-01-10T03:38:59.164Z,100886.16
2019-01-10T03:41:30.970Z,100891.77
2019-01-10T03:44:06.173Z,100889.61
2019-01-10T03:46:40.818Z,100892.23
2019-01-10T03:49:20.056Z,100898.25
2019-01-10T03:51:52.915Z,100899.55
2019-01-10T03:54:28.048Z,100896.09
2019-01-10T03:57:03.779Z,100899.55
2019-01-10T03:59:40.096Z,100903.04
2019-01-10T04:02:14.498Z,100896.56
2019-01-10T04:04:46.180Z,100903.47
2019-01-10T04:07:17.830Z,100901.75
2019-01-10T04:09:49.476Z,100902.16
2019-01-10T04:12:21.340Z,100896.94
2019-01-10T04:14:53.237Z,100895.21
2019-01-10T04:17:24.851Z,100896.48
2019-01-10T04:19:56.491Z,100893.89
2019-01-10T04:22:28.112Z,100897.32
2019-01-10T04:24:59.780Z,100895.59
2019-01-10T04:27:31.488Z,100898.63
2019-01-10T04:30:03.129Z,100897.30
2019-01-10T04:32:35.187Z,100896.86
2019-01-10T04:35:07.329Z,100900.75
2019-01-10T04:37:39.047Z,100900.33
2019-01-10T04:40:14.695Z,100907.25
2019-01-10T04:42:46.302Z,100907.65
2019-01-10T04:45:18.201Z,100908.08
2019-01-10T04:47:49.833Z,100908.95
2019-01-10T04:50:22.557Z,100909.81
2019-01-10T04:52:54.205Z,100908.55
2019-01-10T04:55:25.870Z,100907.25
2019-01-10T04:57:57.472Z,100914.17
2019-01-10T05:00:29.523Z,100917.17
2019-01-10T05:03:02.624Z,100925.39
2019-01-10T05:05:34.257Z,100926.23
2019-01-10T05:08:05.866Z,100924.50
2019-01-10T05:10:38.252Z,100930.12
2019-01-10T05:13:10.670Z,100931.83
2019-01-10T05:15:42.361Z,100938.75
2019-01-10T05:18:13.992Z,100935.26
2019-01-10T05:20:45.649Z,100942.19
2019-01-10T05:23:17.310Z,100944.35
2019-01-10T05:25:50.406Z,100945.22
2019-01-10T05:28:22.143Z,100949.54
2019-01-10T05:30:54.111Z,100947.81
2019-01-10T05:33:26.424Z,100956.06
2019-01-10T05:35:58.412Z,100945.67
2019-01-10T05:38:30.141Z,100947.40
2019-01-10T05:41:01.815Z,100954.77
2019-01-10T05:43:36.446Z,100956.49
2019-01-10T05:46:13.939Z,100956.46
2019-01-10T05:48:48.190Z,100953.87
2019-01-10T05:51:19.794Z,100962.09
2019-01-10T05:53:51.497Z,100962.12
2019-01-10T05:56:23.181Z,100967.31
2019-01-10T05:58:55.331Z,100963.84
2019-01-10T06:01:26.950Z,100966.84
2019-01-10T06:03:58.669Z,100963.39
2019-01-10T06:06:31.506Z,100965.98
2019-01-10T06:09:03.202Z,100971.16
2019-01-10T06:11:34.839Z,100970.28
2019-01-10T06:14:06.526Z,100978.52
2019-01-10T06:16:39.615Z,100982.81
2019-01-10T06:19:11.376Z,100988.00
2019-01-10T06:21:43.012Z,100989.30
2019-01-10T06:24:14.642Z,100984.98
2019-01-10T06:26:46.416Z,100989.34
2019-01-10T06:29:18.487Z,100989.30
2019-01-10T06:31:50.611Z,100991.01
2019-01-10T06:34:22.851Z,100990.58
2019-01-10T06:36:54.606Z,100997.47
2019-01-10T06:39:26.337Z,100997.47
2019-01-10T06:42:09.975Z,101008.30
2019-01-10T06:44:44.638Z,101002.64
2019-01-10T06:47:15.083Z,101005.23
2019-01-10T06:49:46.801Z,101006.11
2019-01-10T06:52:18.597Z,101011.73
2019-01-10T06:54:56.469Z,101010.44
2019-01-10T06:57:23.797Z,101014.33
2019-01-10T06:59:56.758Z,101011.30
2019-01-10T07:02:28.429Z,101022.98
2019-01-10T07:05:03.103Z,101022.56
2019-01-10T07:07:34.721Z,101022.53
2019-01-10T07:10:29.132Z,101016.03
2019-01-10T07:13:00.990Z,101020.37
2019-01-10T07:15:32.654Z,101026.86
2019-01-10T07:18:05.893Z,101039.02
2019-01-10T07:20:43.351Z,101036.84
2019-01-10T07:23:15.667Z,101037.71
2019-01-10T07:25:49.032Z,101044.64
2019-01-10T07:28:27.582Z,101043.74
2019-01-10T07:31:00.953Z,101043.77
2019-01-10T07:33:40.772Z,101043.34
2019-01-10T07:36:17.720Z,101045.51
2019-01-10T07:38:49.572Z,101052.84
2019-01-10T07:41:27.085Z,101065.42
2019-01-10T07:44:03.851Z,101060.68
2019-01-10T07:46:39.399Z,101066.74
2019-01-10T07:49:13.741Z,101064.12
2019-01-10T07:51:50.652Z,101072.78
2019-01-10T07:54:24.590Z,101078.38
2019-01-10T07:56:58.241Z,101080.55
2019-01-10T07:59:31.881Z,101084.44
2019-01-10T08:02:06.515Z,101080.12
2019-01-10T08:04:43.961Z,101083.17
2019-01-10T08:07:26.010Z,101093.12
2019-01-10T08:09:59.837Z,101089.20
2019-01-10T08:12:36.873Z,101098.77
2019-01-10T08:15:17.412Z,101096.56
2019-01-10T08:17:50.782Z,101096.14
2019-01-10T08:20:27.547Z,101104.79
2019-01-10T08:23:00.444Z,101109.15
2019-01-10T08:25:37.417Z,101110.45
2019-01-10T08:28:09.117Z,101119.54
2019-01-10T08:30:42.189Z,101121.27
2019-01-10T08:33:14.180Z,101122.11
2019-01-10T08:35:47.414Z,101124.72
2019-01-10T08:38:19.169Z,101132.48
2019-01-10T08:40:50.828Z,101130.75
2019-01-10T08:43:22.424Z,101136.81
2019-01-10T08:45:55.750Z,101134.22
2019-01-10T08:48:27.399Z,101137.25
2019-01-10T08:50:59.257Z,101132.49
2019-01-10T08:53:30.958Z,101134.23
2019-01-10T08:56:02.678Z,101138.52
2019-01-10T08:58:34.294Z,101141.14
2019-01-10T09:01:06.090Z,101132.47
2019-01-10T09:03:37.673Z,101136.80
2019-01-10T09:06:09.309Z,101138.96
2019-01-10T09:08:41.128Z,101141.56
2019-01-10T09:11:12.910Z,101139.84
2019-01-10T09:13:44.649Z,101147.62
2019-01-10T09:16:16.285Z,101138.53
2019-01-10T09:18:47.953Z,101146.33
2019-01-10T09:21:19.605Z,101145.90
2019-01-10T09:23:51.229Z,101154.97
2019-01-10T09:26:22.916Z,101154.53
2019-01-10T09:28:54.565Z,101160.16
2019-01-10T09:31:26.269Z,101167.09
2019-01-10T09:33:58.356Z,101171.86
2019-01-10T09:36:32.535Z,101173.17
2019-01-10T09:39:05.734Z,101167.52
2019-01-10T09:41:37.447Z,101183.13
2019-01-10T09:44:09.174Z,101179.63
2019-01-10T09:46:41.077Z,101184.86
2019-01-10T09:49:13.009Z,101194.38
2019-01-10T09:51:46.023Z,101191.78
2019-01-10T09:54:17.662Z,101196.11
2019-01-10T09:56:49.356Z,101192.67
2019-01-10T09:59:20.998Z,101202.63
2019-01-10T10:01:52.629Z,101204.78
2019-01-10T10:04:24.551Z,101210.44
2019-01-10T10:06:56.260Z,101205.23
2019-01-10T10:09:28.066Z,101210.02
2019-01-10T10:11:59.934Z,101213.91
2019-01-10T10:14:31.791Z,101213.47
2019-01-10T10:17:03.578Z,101213.91
2019-01-10T10:19:35.355Z,101213.91
2019-01-10T10:22:07.615Z,101211.75
2019-01-10T10:24:39.248Z,101209.16
2019-01-10T10:27:10.996Z,101209.13
2019-01-10T10:29:43.052Z,101201.77
2019-01-10T10:32:14.659Z,101199.16
2019-01-10T10:34:46.731Z,101200.44
2019-01-10T10:37:18.387Z,101196.09
2019-01-10T10:39:51.869Z,101203.47
2019-01-10T10:42:23.597Z,101198.25
2019-01-10T10:44:55.406Z,101196.52
2019-01-10T10:47:27.037Z,101200.83
2019-01-10T10:49:58.709Z,101196.94
2019-01-10T10:52:30.398Z,101197.34
2019-01-10T10:55:02.192Z,101202.97
2019-01-10T10:57:33.928Z,101209.91
2019-01-10T11:00:09.991Z,101204.28
2019-01-10T11:02:41.698Z,101201.69
2019-01-10T11:05:13.570Z,101197.75
2019-01-10T11:07:45.229Z,101200.33
2019-01-10T11:10:19.186Z,101198.61
2019-01-10T11:12:50.930Z,101200.34
2019-01-10T11:15:23.906Z,101202.94
2019-01-10T11:17:55.813Z,101205.08
2019-01-10T11:20:27.931Z,101202.05
2019-01-10T11:22:59.575Z,101196.84
2019-01-10T11:25:33.470Z,101195.98
2019-01-10T11:28:05.603Z,101195.08
2019-01-10T11:30:37.576Z,101192.49
2019-01-10T11:33:11.454Z,101191.62
2019-01-10T11:35:43.127Z,101195.09
2019-01-10T11:38:14.731Z,101206.78
2019-01-10T11:40:46.415Z,101203.34
2019-01-10T11:43:18.178Z,101198.15
2019-01-10T11:45:50.088Z,101199.88
2019-01-10T11:48:21.744Z,101199.42
2019-01-10T11:50:53.408Z,101189.45
2019-01-10T11:53:35.250Z,101187.29
2019-01-10T11:56:00.473Z,101190.32
2019-01-10T11:58:32.076Z,101186.45
2019-01-10T12:01:03.982Z,101193.37
2019-01-10T12:03:35.610Z,101193.41
2019-01-10T12:06:07.363Z,101186.90
2019-01-10T12:08:38.982Z,101184.30
2019-01-10T12:11:10.843Z,101183.00
2019-01-10T12:13:42.664Z,101186.03
2019-01-10T12:16:15.637Z,101183.44
2019-01-10T12:18:47.435Z,101176.48
2019-01-10T12:21:19.307Z,101185.14
2019-01-10T12:23:50.905Z,101189.91
2019-01-10T12:26:22.576Z,101182.52
2019-01-10T12:28:54.208Z,101181.66
2019-01-10T12:31:27.705Z,101179.92
2019-01-10T12:33:59.493Z,101181.69
2019-01-10T12:36:31.754Z,101181.22
2019-01-10T12:39:03.668Z,101182.95
2019-01-10T12:41:35.847Z,101183.83
2019-01-10T12:44:08.391Z,101178.19
2019-01-10T12:46:40.243Z,101178.62
2019-01-10T12:49:12.127Z,101181.22
2019-01-10T12:51:44.024Z,101179.05
2019-01-10T12:54:15.749Z,101173.84
2019-01-10T12:56:47.586Z,101177.78
2019-01-10T12:59:19.366Z,101170.84
2019-01-10T13:01:51.239Z,101176.91
2019-01-10T13:04:23.348Z,101173.44
2019-01-10T13:06:55.380Z,101174.31
2019-01-10T13:09:29.627Z,101176.47
2019-01-10T13:12:01.746Z,101181.68
2019-01-10T13:14:34.116Z,101181.68
2019-01-10T13:17:06.790Z,101180.38
2019-01-10T13:19:39.334Z,101186.88
2019-01-10T13:22:11.169Z,101190.77
2019-01-10T13:24:44.296Z,101190.38
2019-01-10T13:27:16.119Z,101195.13
2019-01-10T13:29:47.778Z,101197.75
2019-01-10T13:32:19.523Z,101190.41
2019-01-10T13:34:51.580Z,101197.34
2019-01-10T13:37:24.458Z,101194.77
2019-01-10T13:39:56.306Z,101196.50
2019-01-10T13:42:28.834Z,101196.47
2019-01-10T13:45:05.046Z,101202.55
2019-01-10T13:47:36.926Z,101200.81
2019-01-10T13:50:12.925Z,101202.95
2019-01-10T13:52:44.850Z,101202.52
2019-01-10T13:55:17.645Z,101208.12
2019-01-10T13:57:49.520Z,101203.83
2019-01-10T14:00:35.416Z,101212.92
2019-01-10T14:03:03.906Z,101212.03
2019-01-10T14:05:35.566Z,101216.80
2019-01-10T14:08:07.267Z,101214.63
2019-01-10T14:10:39.330Z,101216.37
2019-01-10T14:13:11.027Z,101215.93
2019-01-10T14:15:42.685Z,101221.16
2019-01-10T14:18:14.751Z,101221.16
2019-01-10T14:20:46.492Z,101215.98
2019-01-10T14:23:18.213Z,101224.64
2019-01-10T14:25:49.949Z,101216.81
2019-01-10T14:28:21.781Z,101221.17
2019-01-10T14:30:53.490Z,101221.17
2019-01-10T14:33:25.884Z,101223.79
2019-01-10T14:35:57.609Z,101235.92
2019-01-10T14:38:29.355Z,101233.30
2019-01-10T14:41:00.978Z,101230.27
2019-01-10T14:43:32.866Z,101230.28
2019-01-10T14:46:04.515Z,101225.48
2019-01-10T14:48:36.646Z,101233.72
2019-01-10T14:51:08.345Z,101239.36
2019-01-10T14:53:40.033Z,101236.73
2019-01-10T14:56:11.661Z,101242.80
2019-01-10T14:58:43.481Z,101244.10
2019-01-10T15:01:15.523Z,101244.11
2019-01-10T15:04:06.414Z,101250.14
2019-01-10T15:06:38.054Z,101247.55
2019-01-10T15:09:10.336Z,101252.34
2019-01-10T15:11:42.128Z,101258.38
2019-01-10T15:14:16.243Z,101259.68
2019-01-10T15:16:47.703Z,101255.35
2019-01-10T15:19:19.459Z,101254.92
2019-01-10T15:21:51.320Z,101257.08
2019-01-10T15:24:22.988Z,101257.95
2019-01-10T15:26:54.806Z,101258.80
2019-01-10T15:29:26.754Z,101264.43
2019-01-10T15:31:58.597Z,101255.77
2019-01-10T15:34:30.645Z,101254.90
2019-01-10T15:37:02.418Z,101255.77
2019-01-10T15:39:34.149Z,101266.58
2019-01-10T15:42:05.973Z,101266.58
2019-01-10T15:44:37.925Z,101266.14
2019-01-10T15:47:09.614Z,101274.81
2019-01-10T15:49:41.322Z,101274.38
2019-01-10T15:52:13.319Z,101276.55
2019-01-10T15:54:46.252Z,101273.08
2019-01-10T15:57:19.208Z,101272.65
2019-01-10T15:59:50.981Z,101278.28
2019-01-10T16:02:22.725Z,101281.75
2019-01-10T16:04:54.397Z,101285.22
2019-01-10T16:07:27.055Z,101277.41
2019-01-10T16:10:00.234Z,101280.03
2019-01-10T16:12:32.040Z,101284.37
2019-01-10T16:15:03.857Z,101288.27
2019-01-10T16:17:35.711Z,101288.27
2019-01-10T16:20:08.764Z,101290.89
2019-01-10T16:22:40.463Z,101298.26
2019-01-10T16:25:12.763Z,101298.69
2019-01-10T16:27:44.518Z,101299.98
2019-01-10T16:30:22.740Z,101306.48
2019-01-10T16:32:54.997Z,101298.69
2019-01-10T16:35:26.685Z,101306.92
2019-01-10T16:37:58.410Z,101303.00
2019-01-10T16:40:31.861Z,101309.09
2019-01-10T16:43:11.769Z,101318.19
2019-01-10T16:45:41.776Z,101317.75
2019-01-10T16:48:13.800Z,101314.74
2019-01-10T16:50:45.505Z,101314.74
2019-01-10T16:53:17.265Z,101318.64
2019-01-10T16:55:49.017Z,101313.00
2019-01-10T16:58:20.731Z,101316.90
2019-01-10T17:00:52.562Z,101322.09
2019-01-10T17:03:24.672Z,101317.33
2019-01-10T17:05:56.388Z,101319.52
2019-01-10T17:08:28.161Z,101317.33
2019-01-10T17:11:04.826Z,101318.63
2019-01-10T17:13:37.321Z,101314.73
2019-01-10T17:16:09.342Z,101319.50
2019-01-10T17:18:41.693Z,101322.97
2019-01-10T17:21:13.484Z,101320.82
2019-01-10T17:23:45.550Z,101320.83
2019-01-10T17:26:17.398Z,101322.98
2019-01-10T17:28:49.121Z,101322.13
2019-01-10T17:31:20.801Z,101329.05
2019-01-10T17:33:57.174Z,101332.52
2019-01-10T17:36:29.006Z,101326.91
2019-01-10T17:39:00.712Z,101334.70
2019-01-10T17:41:32.565Z,101334.72
2019-01-10T17:44:04.599Z,101344.25
2019-01-10T17:46:36.611Z,101342.52
2019-01-10T17:49:08.987Z,101345.09
2019-01-10T17:51:40.767Z,101339.47
2019-01-10T17:54:12.638Z,101345.12
2019-01-10T17:56:44.386Z,101347.25
2019-01-10T17:59:16.276Z,101352.03
2019-01-10T18:01:48.032Z,101352.45
2019-01-10T18:04:21.193Z,101352.46
2019-01-10T18:06:57.133Z,101349.00
2019-01-10T18:09:29.081Z,101348.14
2019-01-10T18:12:00.997Z,101348.99
2019-01-10T18:14:34.529Z,101347.72
2019-01-10T18:17:06.290Z,101351.59
2019-01-10T18:19:39.117Z,101351.59
2019-01-10T18:22:12.808Z,101359.41
2019-01-10T18:24:45.248Z,101363.73
2019-01-10T18:27:17.448Z,101359.41
2019-01-10T18:29:49.384Z,101370.64
2019-01-10T18:32:21.235Z,101359.81
2019-01-10T18:34:53.471Z,101359.83
2019-01-10T18:37:25.202Z,101358.09
2019-01-10T18:39:57.245Z,101357.22
2019-01-10T18:42:28.973Z,101361.55
2019-01-10T18:45:01.560Z,101361.11
2019-01-10T18:47:33.429Z,101355.06
2019-01-10T18:50:06.946Z,101358.95
2019-01-10T18:52:40.286Z,101352.45
2019-01-10T18:55:12.185Z,101354.61
2019-01-10T18:57:45.041Z,101359.37
2019-01-10T19:00:27.644Z,101353.75
2019-01-10T19:03:01.167Z,101364.15
2019-01-10T19:05:33.577Z,101364.58
2019-01-10T19:08:05.858Z,101368.05
2019-01-10T19:10:37.699Z,101367.59
2019-01-10T19:13:10.596Z,101367.59
2019-01-10T19:15:42.532Z,101368.03
2019-01-10T19:18:14.234Z,101371.94
2019-01-10T19:20:46.151Z,101376.70
2019-01-10T19:23:18.007Z,101376.70
2019-01-10T19:25:50.017Z,101371.52
2019-01-10T19:28:21.864Z,101374.09
2019-01-10T19:30:53.815Z,101379.30
2019-01-10T19:33:26.021Z,101376.68
2019-01-10T19:35:58.246Z,101377.12
2019-01-10T19:38:29.997Z,101379.27
2019-01-10T19:41:01.894Z,101383.59
2019-01-10T19:43:33.801Z,101389.22
2019-01-10T19:46:06.389Z,101389.24
2019-01-10T19:48:38.128Z,101391.83
2019-01-10T19:51:10.053Z,101389.22
2019-01-10T19:53:42.820Z,101396.16
2019-01-10T19:56:14.601Z,101399.61
2019-01-10T19:58:46.482Z,101398.33
2019-01-10T20:01:18.777Z,101400.05
2019-01-10T20:03:50.703Z,101406.55
2019-01-10T20:06:22.563Z,101407.39
2019-01-10T20:08:54.319Z,101407.83
2019-01-10T20:11:26.056Z,101408.27
2019-01-10T20:13:58.043Z,101410.43
2019-01-10T20:16:29.757Z,101413.45
2019-01-10T20:19:05.318Z,101403.93
2019-01-10T20:21:37.359Z,101409.98
2019-01-10T20:24:09.500Z,101422.53
2019-01-10T20:26:41.452Z,101416.01
2019-01-10T20:29:13.389Z,101415.12
2019-01-10T20:31:45.363Z,101411.68
2019-01-10T20:34:17.724Z,101416.42
2019-01-10T20:36:49.554Z,101406.89
2019-01-10T20:39:21.509Z,101415.95
2019-01-10T20:41:54.965Z,101422.45
2019-01-10T20:44:26.867Z,101421.56
2019-01-10T20:49:20.078Z,101417.23
2019-01-10T20:51:51.843Z,101415.45
2019-01-10T20:54:24.768Z,101424.97
2019-01-10T20:56:56.649Z,101421.91
2019-01-10T20:59:28.545Z,101425.33
2019-01-10T21:02:00.398Z,101433.06
2019-01-10T21:04:32.249Z,101426.95
2019-01-10T21:07:04.488Z,101427.81
2019-01-10T21:09:36.458Z,101430.39
2019-01-10T21:12:08.794Z,101427.78
2019-01-10T21:14:41.895Z,101431.64
2019-01-10T21:17:16.153Z,101438.97
2019-01-10T21:19:48.049Z,101438.55
2019-01-10T21:22:20.188Z,101438.08
2019-01-10T21:24:52.020Z,101442.81
2019-01-10T21:27:23.930Z,101435.41
2019-01-10T21:29:56.118Z,101434.93
2019-01-10T21:32:31.149Z,101439.63
2019-01-10T21:35:03.522Z,101439.16
2019-01-10T21:37:35.439Z,101435.66
2019-01-10T21:40:10.971Z,101440.37
2019-01-10T21:42:44.208Z,101450.30
2019-01-10T21:45:18.941Z,101442.95
2019-01-10T21:47:51.028Z,101439.03
2019-01-10T21:50:25.828Z,101433.33
2019-01-10T21:52:57.849Z,101440.61
2019-01-10T21:55:30.000Z,101445.30
2019-01-10T21:58:01.445Z,101442.69
2019-01-10T22:00:33.936Z,101437.89
2019-01-10T22:03:05.861Z,101439.13
2019-01-10T22:05:37.555Z,101441.30
2019-01-10T22:08:09.873Z,101442.19
2019-01-10T22:10:41.611Z,101454.77
2019-01-10T22:13:13.301Z,101458.20
2019-01-10T22:15:44.954Z,101449.97
2019-01-10T22:18:16.702Z,101438.27
2019-01-10T22:20:48.419Z,101441.70
2019-01-10T22:23:20.108Z,101436.48
2019-01-10T22:25:51.897Z,101436.91
2019-01-10T22:28:23.595Z,101439.89
2019-01-10T22:30:55.752Z,101435.97
2019-01-10T22:33:27.922Z,101435.08
2019-01-10T22:35:59.622Z,101435.50
2019-01-10T22:38:31.399Z,101431.19
2019-01-10T22:41:03.107Z,101438.11
2019-01-10T22:43:34.899Z,101434.66
2019-01-10T22:46:06.870Z,101437.63
2019-01-10T22:48:38.609Z,101435.36
2019-01-10T22:51:10.415Z,101444.33
2019-01-10T22:53:43.906Z,101445.14
2019-01-10T22:56:15.756Z,101443.92
2019-01-10T22:58:47.565Z,101453.84
2019-01-10T23:01:45.946Z,101453.84
2019-01-10T23:04:32.562Z,101455.54
2019-01-10T23:07:04.242Z,101461.14
2019-01-10T23:09:35.880Z,101455.14
2019-01-10T23:12:14.320Z,101466.84
2019-01-10T23:14:45.973Z,101455.66
2019-01-10T23:17:17.602Z,101450.54
2019-01-10T23:19:51.926Z,101455.75
2019-01-10T23:22:23.556Z,101450.56
2019-01-10T23:24:59.141Z,101444.11
2019-01-10T23:27:30.958Z,101432.47
2019-01-10T23:30:02.622Z,101432.86
2019-01-10T23:32:34.283Z,101430.75
2019-01-10T23:35:06.817Z,101438.11
2019-01-10T23:37:38.615Z,101444.23
2019-01-10T23:40:12.383Z,101441.23
2019-01-10T23:42:44.160Z,101446.04
2019-01-10T23:45:19.590Z,101430.50
2019-01-10T23:47:51.251Z,101430.88
2019-01-10T23:50:23.349Z,101429.56
2019-01-10T23:52:55.029Z,101427.84
2019-01-10T23:55:26.706Z,101428.29
2019-01-10T23:57:58.395Z,101433.03
